createdAt,value
2022-08-05T00:00:10.328Z,996.41
2022-08-05T00:00:35.083Z,996.51
2022-08-05T00:01:01.078Z,996.51
2022-08-05T00:01:36.439Z,996.51
2022-08-05T00:02:07.675Z,996.71
2022-08-05T00:02:35.307Z,996.71
2022-08-05T00:03:06.461Z,996.61
2022-08-05T00:03:36.042Z,996.51
2022-08-05T00:03:54.234Z,996.51
2022-08-05T00:04:26.503Z,996.51
2022-08-05T00:04:43.660Z,996.71
2022-08-05T00:06:02.723Z,996.71
2022-08-05T00:06:27.917Z,996.61
2022-08-05T00:06:51.645Z,996.61
2022-08-05T00:07:59.139Z,996.61
2022-08-05T00:08:32.511Z,996.61
2022-08-05T00:08:42.254Z,996.61
2022-08-05T00:09:14.863Z,996.61
2022-08-05T00:09:36.441Z,996.61
2022-08-05T00:10:02.517Z,996.61
2022-08-05T00:10:36.522Z,996.61
2022-08-05T00:11:07.580Z,996.71
2022-08-05T00:11:42.602Z,996.82
2022-08-05T00:11:55.626Z,996.82
2022-08-05T00:12:27.158Z,996.82
2022-08-05T00:12:58.333Z,996.82
2022-08-05T00:13:38.447Z,996.82
2022-08-05T00:14:02.415Z,996.92
2022-08-05T00:14:34.194Z,996.92
2022-08-05T00:15:14.040Z,996.92
2022-08-05T00:16:12.254Z,997.12
2022-08-05T00:16:52.133Z,997.02
2022-08-05T00:16:58.998Z,997.02
2022-08-05T00:17:31.361Z,997.02
2022-08-05T00:18:02.693Z,997.12
2022-08-05T00:18:34.256Z,997.12
2022-08-05T00:19:06.456Z,997.12
2022-08-05T00:19:45.851Z,997.02
2022-08-05T00:20:10.267Z,997.02
2022-08-05T00:20:35.058Z,996.92
2022-08-05T00:20:59.222Z,996.92
2022-08-05T00:21:30.678Z,996.92
2022-08-05T00:22:03.164Z,997.02
2022-08-05T00:22:35.309Z,997.02
2022-08-05T00:23:13.002Z,997.02
2022-08-05T00:23:46.384Z,997.02
2022-08-05T00:24:15.971Z,997.02
2022-08-05T00:24:35.068Z,996.92
2022-08-05T00:24:58.341Z,996.92
2022-08-05T00:25:45.725Z,996.92
2022-08-05T00:26:02.426Z,997.02
2022-08-05T00:26:34.193Z,997.02
2022-08-05T00:27:10.526Z,997.02
2022-08-05T00:27:35.742Z,997.02
2022-08-05T00:27:55.314Z,997.02
2022-08-05T00:28:29.763Z,997.02
2022-08-05T00:28:43.102Z,996.82
2022-08-05T00:29:14.848Z,996.82
2022-08-05T00:29:38.030Z,996.71
2022-08-05T00:30:03.517Z,996.71
2022-08-05T00:30:34.282Z,996.71
2022-08-05T00:31:07.556Z,996.92
2022-08-05T00:31:53.675Z,996.82
2022-08-05T00:32:26.519Z,996.82
2022-08-05T00:32:43.511Z,997.12
2022-08-05T00:33:15.412Z,997.12
2022-08-05T00:35:03.390Z,996.82
2022-08-05T00:35:22.202Z,996.82
2022-08-05T00:35:47.915Z,996.92
2022-08-05T00:37:12.442Z,996.92
2022-08-05T00:37:51.240Z,996.82
2022-08-05T00:38:02.372Z,997.02
2022-08-05T00:38:34.157Z,997.02
2022-08-05T00:39:06.606Z,996.82
2022-08-05T00:39:41.407Z,996.82
2022-08-05T00:39:57.358Z,996.82
2022-08-05T00:40:28.772Z,996.82
2022-08-05T00:40:46.591Z,997.02
2022-08-05T00:41:16.010Z,997.02
2022-08-05T00:41:51.939Z,996.61
2022-08-05T00:42:02.372Z,996.61
2022-08-05T00:42:36.831Z,996.61
2022-08-05T00:43:07.393Z,996.92
2022-08-05T00:43:47.260Z,996.71
2022-08-05T00:43:54.197Z,996.71
2022-08-05T00:44:30.746Z,996.71
2022-08-05T00:44:44.458Z,997.02
2022-08-05T00:45:15.258Z,997.02
2022-08-05T00:45:38.529Z,996.92
2022-08-05T00:46:02.429Z,996.92
2022-08-05T00:46:42.737Z,996.92
2022-08-05T00:47:07.196Z,996.71
2022-08-05T00:47:56.476Z,996.51
2022-08-05T00:48:10.332Z,996.51
2022-08-05T00:48:35.076Z,996.51
2022-08-05T00:48:58.942Z,996.51
2022-08-05T00:49:32.492Z,996.51
2022-08-05T00:50:02.366Z,996.51
2022-08-05T00:50:34.464Z,996.51
2022-08-05T00:51:49.853Z,996.61
2022-08-05T00:51:54.174Z,996.71
2022-08-05T00:52:28.801Z,996.71
2022-08-05T00:52:45.549Z,996.61
2022-08-05T00:53:45.465Z,996.61
2022-08-05T00:54:18.170Z,996.41
2022-08-05T00:54:50.233Z,996.71
2022-08-05T00:55:22.400Z,996.71
2022-08-05T00:55:42.859Z,996.31
2022-08-05T00:56:10.303Z,996.31
2022-08-05T00:56:36.778Z,996.71
2022-08-05T00:56:59.066Z,996.71
2022-08-05T00:57:55.468Z,996.71
2022-08-05T00:58:02.294Z,996.61
2022-08-05T00:58:35.125Z,996.61
2022-08-05T00:59:06.958Z,996.71
2022-08-05T00:59:44.265Z,996.61
2022-08-05T00:59:54.171Z,996.61
2022-08-05T01:00:26.780Z,996.61
2022-08-05T01:00:43.749Z,996.51
2022-08-05T01:01:15.266Z,996.51
2022-08-05T01:01:42.557Z,996.41
2022-08-05T01:02:02.376Z,996.41
2022-08-05T01:02:34.192Z,996.41
2022-08-05T01:03:07.705Z,996.61
2022-08-05T01:03:35.064Z,996.31
2022-08-05T01:03:54.148Z,996.31
2022-08-05T01:04:26.785Z,996.31
2022-08-05T01:04:42.917Z,996.31
2022-08-05T01:05:14.203Z,996.31
2022-08-05T01:05:36.037Z,996.31
2022-08-05T01:06:03.796Z,996.31
2022-08-05T01:06:37.546Z,996.31
2022-08-05T01:07:07.055Z,996.14
2022-08-05T01:07:35.000Z,996.51
2022-08-05T01:08:39.950Z,996.51
2022-08-05T01:08:58.982Z,996.04
2022-08-05T01:09:30.496Z,996.04
2022-08-05T01:10:02.436Z,996.14
2022-08-05T01:10:34.930Z,996.14
2022-08-05T01:11:06.353Z,996.24
2022-08-05T01:11:37.267Z,996.14
2022-08-05T01:11:54.195Z,996.14
2022-08-05T01:12:29.731Z,996.14
2022-08-05T01:13:05.111Z,996.04
2022-08-05T01:13:57.510Z,996.04
2022-08-05T01:14:02.350Z,995.83
2022-08-05T01:14:34.946Z,995.83
2022-08-05T01:15:06.274Z,995.73
2022-08-05T01:15:54.026Z,995.73
2022-08-05T01:16:26.641Z,995.73
2022-08-05T01:16:44.242Z,995.73
2022-08-05T01:17:14.134Z,995.73
2022-08-05T01:17:40.249Z,995.83
2022-08-05T01:18:02.369Z,995.83
2022-08-05T01:18:34.186Z,995.83
2022-08-05T01:19:06.081Z,995.94
2022-08-05T01:19:56.562Z,995.83
2022-08-05T01:20:10.080Z,995.83
2022-08-05T01:20:35.013Z,996.04
2022-08-05T01:20:58.057Z,996.04
2022-08-05T01:21:37.818Z,996.04
2022-08-05T01:22:03.239Z,996.04
2022-08-05T01:22:34.311Z,996.04
2022-08-05T01:23:14.527Z,995.94
2022-08-05T01:23:35.520Z,995.83
2022-08-05T01:23:54.172Z,995.83
2022-08-05T01:24:26.485Z,995.83
2022-08-05T01:24:43.494Z,995.73
2022-08-05T01:25:14.103Z,995.73
2022-08-05T01:25:39.736Z,996.04
2022-08-05T01:26:02.352Z,996.04
2022-08-05T01:26:35.170Z,996.04
2022-08-05T01:27:17.839Z,995.94
2022-08-05T01:27:35.092Z,995.94
2022-08-05T01:27:55.580Z,995.94
2022-08-05T01:28:26.277Z,995.94
2022-08-05T01:28:43.023Z,995.94
2022-08-05T01:29:14.214Z,995.94
2022-08-05T01:29:36.740Z,996.04
2022-08-05T01:30:02.420Z,996.04
2022-08-05T01:30:35.206Z,996.04
2022-08-05T01:31:07.626Z,995.83
2022-08-05T01:31:44.904Z,995.94
2022-08-05T01:32:12.406Z,995.94
2022-08-05T01:32:27.661Z,995.94
2022-08-05T01:32:58.434Z,995.94
2022-08-05T01:33:35.473Z,995.94
2022-08-05T01:34:03.195Z,995.94
2022-08-05T01:34:34.102Z,995.94
2022-08-05T01:35:10.487Z,995.73
2022-08-05T01:35:52.038Z,995.83
2022-08-05T01:36:12.867Z,995.83
2022-08-05T01:36:42.319Z,995.73
2022-08-05T01:37:00.681Z,995.73
2022-08-05T01:37:31.580Z,995.73
2022-08-05T01:38:02.310Z,995.63
2022-08-05T01:38:34.088Z,995.63
2022-08-05T01:39:06.315Z,995.83
2022-08-05T01:39:47.924Z,995.63
2022-08-05T01:39:54.261Z,995.63
2022-08-05T01:40:29.060Z,995.63
2022-08-05T01:40:45.100Z,995.43
2022-08-05T01:41:14.797Z,995.43
2022-08-05T01:41:35.044Z,995.73
2022-08-05T01:42:02.295Z,995.73
2022-08-05T01:42:34.023Z,995.73
2022-08-05T01:43:06.154Z,995.63
2022-08-05T01:43:35.116Z,995.83
2022-08-05T01:43:54.109Z,995.83
2022-08-05T01:44:35.268Z,995.83
2022-08-05T01:44:59.247Z,995.53
2022-08-05T01:45:34.794Z,995.53
2022-08-05T01:46:07.254Z,995.63
2022-08-05T01:46:43.112Z,995.63
2022-08-05T01:47:06.820Z,995.63
2022-08-05T01:47:39.546Z,995.53
2022-08-05T01:47:57.202Z,995.53
2022-08-05T01:48:26.269Z,995.53
2022-08-05T01:48:58.010Z,995.53
2022-08-05T01:50:01.450Z,995.53
2022-08-05T01:50:18.102Z,995.53
2022-08-05T01:50:51.455Z,995.43
2022-08-05T01:51:23.104Z,995.43
2022-08-05T01:51:42.078Z,995.53
2022-08-05T01:52:17.542Z,995.53
2022-08-05T01:52:35.110Z,995.43
2022-08-05T01:52:59.073Z,995.43
2022-08-05T01:53:57.624Z,995.43
2022-08-05T01:54:02.298Z,995.33
2022-08-05T01:54:46.215Z,995.33
2022-08-05T01:55:08.028Z,995.33
2022-08-05T01:55:36.448Z,995.33
2022-08-05T01:55:54.128Z,995.33
2022-08-05T01:58:29.305Z,995.33
2022-08-05T01:58:51.518Z,995.33
2022-08-05T01:59:22.112Z,995.33
2022-08-05T01:59:39.285Z,995.12
2022-08-05T02:00:12.043Z,995.12
2022-08-05T02:00:35.051Z,995.12
2022-08-05T02:00:58.048Z,995.12
2022-08-05T02:01:38.728Z,995.12
2022-08-05T02:02:02.284Z,995.12
2022-08-05T02:02:34.156Z,995.12
2022-08-05T02:03:06.215Z,995.12
2022-08-05T02:03:35.110Z,995.12
2022-08-05T02:03:54.081Z,995.12
2022-08-05T02:04:26.242Z,995.12
2022-08-05T02:04:58.206Z,995.22
2022-08-05T02:05:30.100Z,995.22
2022-08-05T02:06:03.613Z,995.22
2022-08-05T02:06:38.594Z,995.22
2022-08-05T02:07:06.215Z,995.12
2022-08-05T02:07:35.165Z,995.33
2022-08-05T02:07:59.985Z,995.33
2022-08-05T02:08:30.664Z,995.33
2022-08-05T02:08:44.881Z,994.72
2022-08-05T02:09:14.729Z,994.72
2022-08-05T02:09:35.126Z,995.02
2022-08-05T02:10:02.275Z,995.02
2022-08-05T02:10:34.043Z,995.02
2022-08-05T02:11:06.305Z,995.02
2022-08-05T02:11:36.741Z,994.82
2022-08-05T02:11:54.599Z,994.82
2022-08-05T02:12:26.236Z,994.82
2022-08-05T02:12:59.095Z,994.82
2022-08-05T02:13:48.641Z,994.82
2022-08-05T02:14:02.145Z,995.02
2022-08-05T02:14:34.132Z,995.02
2022-08-05T02:15:07.367Z,994.82
2022-08-05T02:15:35.029Z,994.82
2022-08-05T02:15:54.107Z,994.82
2022-08-05T02:16:26.115Z,994.82
2022-08-05T02:16:44.063Z,995.02
2022-08-05T02:17:29.886Z,995.02
2022-08-05T02:18:36.878Z,994.61
2022-08-05T02:19:07.152Z,995.02
2022-08-05T02:19:35.168Z,994.72
2022-08-05T02:19:54.194Z,994.72
2022-08-05T02:20:26.327Z,994.72
2022-08-05T02:20:59.190Z,994.82
2022-08-05T02:21:30.430Z,994.82
2022-08-05T02:22:03.039Z,994.72
2022-08-05T02:22:34.108Z,994.72
2022-08-05T02:23:06.123Z,994.82
2022-08-05T02:23:35.724Z,995.02
2022-08-05T02:23:54.095Z,995.02
2022-08-05T02:24:26.397Z,995.02
2022-08-05T02:24:46.911Z,994.92
2022-08-05T02:25:14.113Z,994.92
2022-08-05T02:25:49.061Z,995.02
2022-08-05T02:26:02.273Z,995.02
2022-08-05T02:26:36.181Z,995.02
2022-08-05T02:27:10.058Z,995.22
2022-08-05T02:27:59.461Z,995.12
2022-08-05T02:28:10.057Z,995.12
2022-08-05T02:28:38.448Z,995.33
2022-08-05T02:28:59.070Z,995.33
2022-08-05T02:29:58.527Z,995.33
2022-08-05T02:30:02.368Z,995.33
2022-08-05T02:30:34.519Z,995.33
2022-08-05T02:31:07.616Z,995.43
2022-08-05T02:31:35.273Z,995.43
2022-08-05T02:31:55.457Z,995.43
2022-08-05T02:32:30.578Z,995.43
2022-08-05T02:32:57.990Z,995.53
2022-08-05T02:33:35.867Z,995.53
2022-08-05T02:34:02.223Z,995.53
2022-08-05T02:34:35.587Z,995.53
2022-08-05T02:35:13.967Z,995.33
2022-08-05T02:35:41.178Z,995.33
2022-08-05T02:35:58.949Z,995.33
2022-08-05T02:36:27.256Z,995.33
2022-08-05T02:36:58.052Z,995.63
2022-08-05T02:37:32.082Z,995.63
2022-08-05T02:38:03.169Z,995.63
2022-08-05T02:38:35.516Z,995.63
2022-08-05T02:39:08.797Z,995.83
2022-08-05T02:39:35.177Z,995.63
2022-08-05T02:39:54.126Z,995.63
2022-08-05T02:40:27.534Z,995.63
2022-08-05T02:40:57.952Z,995.73
2022-08-05T02:41:43.275Z,995.73
2022-08-05T02:42:04.037Z,995.63
2022-08-05T02:42:36.123Z,995.63
2022-08-05T02:43:07.163Z,995.63
2022-08-05T02:43:35.101Z,996.04
2022-08-05T02:44:13.312Z,996.04
2022-08-05T02:44:35.142Z,996.14
2022-08-05T02:44:58.949Z,996.14
2022-08-05T02:45:51.593Z,996.14
2022-08-05T02:46:02.263Z,996.04
2022-08-05T02:46:34.041Z,996.04
2022-08-05T02:47:06.143Z,996.24
2022-08-05T02:48:06.309Z,995.94
2022-08-05T02:48:29.070Z,995.94
2022-08-05T02:48:59.028Z,995.94
2022-08-05T02:49:36.529Z,995.94
2022-08-05T02:50:02.270Z,995.94
2022-08-05T02:50:34.057Z,995.94
2022-08-05T02:51:06.022Z,996.14
2022-08-05T02:52:03.781Z,996.24
2022-08-05T02:52:25.787Z,996.24
2022-08-05T02:52:35.602Z,996.14
2022-08-05T02:52:57.945Z,996.14
2022-08-05T02:53:39.488Z,996.14
2022-08-05T02:54:03.935Z,995.94
2022-08-05T02:54:35.651Z,995.94
2022-08-05T02:55:10.713Z,995.83
2022-08-05T02:55:54.376Z,996.14
2022-08-05T02:56:10.050Z,996.14
2022-08-05T02:56:35.880Z,996.04
2022-08-05T02:56:57.788Z,996.04
2022-08-05T02:58:09.337Z,996.04
2022-08-05T02:58:18.042Z,995.94
2022-08-05T02:58:51.514Z,996.14
2022-08-05T02:59:22.018Z,996.14
2022-08-05T02:59:47.856Z,996.14
2022-08-05T03:00:10.124Z,996.14
2022-08-05T03:00:35.036Z,996.14
2022-08-05T03:00:58.912Z,996.14
2022-08-05T03:01:30.753Z,996.14
2022-08-05T03:02:02.453Z,996.31
2022-08-05T03:02:33.996Z,996.31
2022-08-05T03:03:07.760Z,996.14
2022-08-05T03:04:03.083Z,996.04
2022-08-05T03:04:27.151Z,996.04
2022-08-05T03:04:59.174Z,996.14
2022-08-05T03:06:56.029Z,996.14
2022-08-05T03:07:05.947Z,996.14
2022-08-05T03:08:00.073Z,995.94
2022-08-05T03:08:10.586Z,995.94
2022-08-05T03:08:36.926Z,996.14
2022-08-05T03:08:57.938Z,996.14
2022-08-05T03:09:37.554Z,996.14
2022-08-05T03:10:02.307Z,995.73
2022-08-05T03:10:34.147Z,995.73
2022-08-05T03:11:56.655Z,995.94
2022-08-05T03:12:10.032Z,995.94
2022-08-05T03:12:35.091Z,995.73
2022-08-05T03:13:51.896Z,995.73
2022-08-05T03:14:18.117Z,995.63
2022-08-05T03:14:50.096Z,995.43
2022-08-05T03:15:23.679Z,995.43
2022-08-05T03:15:40.102Z,995.83
2022-08-05T03:16:10.077Z,995.83
2022-08-05T03:16:35.984Z,995.53
2022-08-05T03:16:57.933Z,995.53
2022-08-05T03:17:32.999Z,995.53
2022-08-05T03:18:02.156Z,995.83
2022-08-05T03:18:34.073Z,995.83
2022-08-05T03:19:17.019Z,996.04
2022-08-05T03:19:35.991Z,996.04
2022-08-05T03:19:54.748Z,996.04
2022-08-05T03:20:26.065Z,996.04
2022-08-05T03:20:59.102Z,996.04
2022-08-05T03:21:33.200Z,996.04
2022-08-05T03:22:04.669Z,996.14
2022-08-05T03:22:33.978Z,996.14
2022-08-05T03:23:06.056Z,996.14
2022-08-05T03:23:35.157Z,996.14
2022-08-05T03:23:54.076Z,996.14
2022-08-05T03:24:30.046Z,996.14
2022-08-05T03:24:43.203Z,996.04
2022-08-05T03:25:33.752Z,996.04
2022-08-05T03:26:31.884Z,995.83
2022-08-05T03:26:49.961Z,996.14
2022-08-05T03:27:22.431Z,996.14
2022-08-05T03:27:58.066Z,995.94
2022-08-05T03:28:11.070Z,995.94
2022-08-05T03:28:39.148Z,996.04
2022-08-05T03:28:57.910Z,996.04
2022-08-05T03:29:45.939Z,996.04
2022-08-05T03:30:20.866Z,996.04
2022-08-05T03:30:50.880Z,995.83
2022-08-05T03:31:55.297Z,995.83
2022-08-05T03:32:10.640Z,995.83
2022-08-05T03:32:35.143Z,995.94
2022-08-05T03:32:57.926Z,995.94
2022-08-05T03:33:32.248Z,995.94
2022-08-05T03:34:02.173Z,995.83
2022-08-05T03:34:34.075Z,995.83
2022-08-05T03:35:06.049Z,995.94
2022-08-05T03:35:41.164Z,996.24
2022-08-05T03:35:53.796Z,996.24
2022-08-05T03:36:30.241Z,996.24
2022-08-05T03:36:57.918Z,996.14
2022-08-05T03:37:29.992Z,996.14
2022-08-05T03:38:02.151Z,995.94
2022-08-05T03:38:37.567Z,995.94
2022-08-05T03:39:06.143Z,996.31
2022-08-05T03:39:47.122Z,996.51
2022-08-05T03:40:11.891Z,996.51
2022-08-05T03:40:36.049Z,996.82
2022-08-05T03:40:58.004Z,996.82
2022-08-05T03:41:33.296Z,996.82
2022-08-05T03:42:02.217Z,997.12
2022-08-05T03:42:51.407Z,997.12
2022-08-05T03:43:58.405Z,997.02
2022-08-05T03:44:25.986Z,997.12
2022-08-05T03:44:43.003Z,997.22
2022-08-05T03:45:22.071Z,997.22
2022-08-05T03:45:57.371Z,997.43
2022-08-05T03:46:02.154Z,997.43
2022-08-05T03:46:34.061Z,997.43
2022-08-05T03:47:07.267Z,997.22
2022-08-05T03:47:41.285Z,997.43
2022-08-05T03:47:56.914Z,997.43
2022-08-05T03:48:25.985Z,997.43
2022-08-05T03:48:45.428Z,997.22
2022-08-05T03:49:15.052Z,997.22
2022-08-05T03:49:51.617Z,997.53
2022-08-05T03:50:02.216Z,997.53
2022-08-05T03:50:34.822Z,997.53
2022-08-05T03:52:35.200Z,997.63
2022-08-05T03:54:58.838Z,997.63
2022-08-05T03:56:01.592Z,997.73
2022-08-05T03:56:31.873Z,997.93
2022-08-05T03:57:00.137Z,997.93
2022-08-05T03:57:41.907Z,997.93
2022-08-05T03:58:02.212Z,997.93
2022-08-05T03:58:34.030Z,997.93
2022-08-05T03:59:05.982Z,998.03
2022-08-05T03:59:47.540Z,997.83
2022-08-05T04:00:10.148Z,997.83
2022-08-05T04:00:35.671Z,997.83
2022-08-05T04:00:57.922Z,997.83
2022-08-05T04:01:32.283Z,997.83
2022-08-05T04:02:02.322Z,997.83
2022-08-05T04:02:37.544Z,997.83
2022-08-05T04:03:05.983Z,997.63
2022-08-05T04:03:38.112Z,997.83
2022-08-05T04:04:09.098Z,997.83
2022-08-05T04:04:26.546Z,997.83
2022-08-05T04:04:43.027Z,997.83
2022-08-05T04:05:13.999Z,997.83
2022-08-05T04:05:35.091Z,997.83
2022-08-05T04:06:02.169Z,997.83
2022-08-05T04:06:36.772Z,997.83
2022-08-05T04:07:05.944Z,997.63
2022-08-05T04:07:35.073Z,997.32
2022-08-05T04:08:29.921Z,997.32
2022-08-05T04:08:42.048Z,997.63
2022-08-05T04:09:16.032Z,997.63
2022-08-05T04:09:36.525Z,997.73
2022-08-05T04:10:03.302Z,997.73
2022-08-05T04:10:38.227Z,997.73
2022-08-05T04:11:06.011Z,997.43
2022-08-05T04:11:50.921Z,997.53
2022-08-05T04:12:24.560Z,997.53
2022-08-05T04:12:59.007Z,997.32
2022-08-05T04:13:49.915Z,997.32
2022-08-05T04:14:03.093Z,997.43
2022-08-05T04:14:33.936Z,997.43
2022-08-05T04:15:06.082Z,997.12
2022-08-05T04:15:35.887Z,997.43
2022-08-05T04:16:04.284Z,997.43
2022-08-05T04:16:32.434Z,997.43
2022-08-05T04:16:42.943Z,997.12
2022-08-05T04:17:13.996Z,997.12
2022-08-05T04:17:56.693Z,997.22
2022-08-05T04:18:20.623Z,997.22
2022-08-05T04:18:53.973Z,997.12
2022-08-05T04:19:23.366Z,997.12
2022-08-05T04:19:40.863Z,997.32
2022-08-05T04:20:09.959Z,997.32
2022-08-05T04:20:35.050Z,997.63
2022-08-05T04:20:59.143Z,997.63
2022-08-05T04:22:08.505Z,997.63
2022-08-05T04:22:21.225Z,997.53
2022-08-05T04:22:35.611Z,997.53
2022-08-05T04:23:07.595Z,997.53
2022-08-05T04:23:57.283Z,997.43
2022-08-05T04:24:19.242Z,997.43
2022-08-05T04:24:35.337Z,997.32
2022-08-05T04:24:58.108Z,997.32
2022-08-05T04:25:57.058Z,997.32
2022-08-05T04:26:18.104Z,997.43
2022-08-05T04:26:35.640Z,997.43
2022-08-05T04:27:07.437Z,997.43
2022-08-05T04:27:43.637Z,997.43
2022-08-05T04:28:11.433Z,997.43
2022-08-05T04:28:35.133Z,997.53
2022-08-05T04:28:58.077Z,997.53
2022-08-05T04:29:30.227Z,997.53
2022-08-05T04:30:03.806Z,997.22
2022-08-05T04:30:34.154Z,997.22
2022-08-05T04:31:10.437Z,997.53
2022-08-05T04:31:38.638Z,997.63
2022-08-05T04:31:54.196Z,997.63
2022-08-05T04:32:30.989Z,997.63
2022-08-05T04:32:58.110Z,997.73
2022-08-05T04:34:17.214Z,997.73
2022-08-05T04:34:36.615Z,997.53
2022-08-05T04:35:06.151Z,997.43
2022-08-05T04:36:16.138Z,997.63
2022-08-05T04:36:59.265Z,997.73
2022-08-05T04:38:02.865Z,997.73
2022-08-05T04:38:18.246Z,997.73
2022-08-05T04:38:39.487Z,997.93
2022-08-05T04:39:07.434Z,997.93
2022-08-05T04:39:35.743Z,998.03
2022-08-05T04:39:55.705Z,998.03
2022-08-05T04:40:26.195Z,998.03
2022-08-05T04:40:44.567Z,997.83
2022-08-05T04:41:14.693Z,997.83
2022-08-05T04:41:37.220Z,997.83
2022-08-05T04:42:02.299Z,997.83
2022-08-05T04:42:34.146Z,997.83
2022-08-05T04:43:06.139Z,997.73
2022-08-05T04:43:36.154Z,997.73
2022-08-05T04:43:54.109Z,997.73
2022-08-05T04:44:30.039Z,997.73
2022-08-05T04:44:58.090Z,997.73
2022-08-05T04:45:48.266Z,997.73
2022-08-05T04:46:03.330Z,997.93
2022-08-05T04:46:37.132Z,997.93
2022-08-05T04:47:09.708Z,997.83
2022-08-05T04:47:38.626Z,997.93
2022-08-05T04:47:54.128Z,997.93
2022-08-05T04:48:27.614Z,997.93
2022-08-05T04:48:43.129Z,998.24
2022-08-05T04:49:15.168Z,998.24
2022-08-05T04:49:38.377Z,998.14
2022-08-05T04:50:37.257Z,998.14
2022-08-05T04:51:03.774Z,998.03
2022-08-05T04:51:23.539Z,998.03
2022-08-05T04:51:40.880Z,997.93
2022-08-05T04:52:10.153Z,997.93
2022-08-05T04:52:36.671Z,997.93
2022-08-05T04:52:58.073Z,997.93
2022-08-05T04:53:33.599Z,997.93
2022-08-05T04:54:06.399Z,997.93
2022-08-05T04:54:34.081Z,997.93
2022-08-05T04:55:14.159Z,997.93
2022-08-05T04:56:14.724Z,998.03
2022-08-05T04:56:37.019Z,998.14
2022-08-05T04:56:59.798Z,998.14
2022-08-05T04:57:29.931Z,998.14
2022-08-05T04:58:02.326Z,998.14
2022-08-05T04:58:34.087Z,998.14
2022-08-05T04:59:24.338Z,998.24
2022-08-05T04:59:54.046Z,998.03
2022-08-05T05:00:26.198Z,998.03
2022-08-05T05:00:43.122Z,998.14
2022-08-05T05:01:14.222Z,998.14
2022-08-05T05:02:34.979Z,998.03
2022-08-05T05:02:50.142Z,998.03
2022-08-05T05:03:22.172Z,998.03
2022-08-05T05:03:42.180Z,997.93
2022-08-05T05:04:11.225Z,997.93
2022-08-05T05:04:38.283Z,998.03
2022-08-05T05:05:01.968Z,998.03
2022-08-05T05:05:32.067Z,998.03
2022-08-05T05:06:39.104Z,997.93
2022-08-05T05:06:57.458Z,998.14
2022-08-05T05:07:23.790Z,998.14
2022-08-05T05:07:40.003Z,998.14
2022-08-05T05:08:14.207Z,998.14
2022-08-05T05:08:35.209Z,998.14
2022-08-05T05:08:58.116Z,998.14
2022-08-05T05:09:30.044Z,998.14
2022-08-05T05:10:03.021Z,998.44
2022-08-05T05:10:35.400Z,998.44
2022-08-05T05:11:06.130Z,998.14
2022-08-05T05:11:41.656Z,998.24
2022-08-05T05:12:10.051Z,998.24
2022-08-05T05:12:36.779Z,998.34
2022-08-05T05:12:58.092Z,998.34
2022-08-05T05:13:32.321Z,998.34
2022-08-05T05:14:02.192Z,998.44
2022-08-05T05:14:36.308Z,998.44
2022-08-05T05:15:10.778Z,998.24
2022-08-05T05:15:57.847Z,998.44
2022-08-05T05:16:10.013Z,998.44
2022-08-05T05:16:36.200Z,998.24
2022-08-05T05:16:58.101Z,998.24
2022-08-05T05:17:56.403Z,998.24
2022-08-05T05:18:02.327Z,998.34
2022-08-05T05:18:34.324Z,998.34
2022-08-05T05:19:18.733Z,998.24
2022-08-05T05:19:36.452Z,998.03
2022-08-05T05:19:54.050Z,998.03
2022-08-05T05:20:28.679Z,998.03
2022-08-05T05:20:43.508Z,998.44
2022-08-05T05:21:14.241Z,998.44
2022-08-05T05:21:35.317Z,998.24
2022-08-05T05:22:23.106Z,998.24
2022-08-05T05:22:34.040Z,998.24
2022-08-05T05:23:08.364Z,998.14
2022-08-05T05:24:01.995Z,998.14
2022-08-05T05:24:10.420Z,998.14
2022-08-05T05:24:56.702Z,998.14
2022-08-05T05:25:15.982Z,998.14
2022-08-05T05:25:40.926Z,998.03
2022-08-05T05:26:03.352Z,998.03
2022-08-05T05:26:34.951Z,998.03
2022-08-05T05:27:07.811Z,998.14
2022-08-05T05:27:45.090Z,998.34
2022-08-05T05:28:10.118Z,998.34
2022-08-05T05:28:38.867Z,998.03
2022-08-05T05:28:59.031Z,998.03
2022-08-05T05:30:04.581Z,998.03
2022-08-05T05:30:31.262Z,998.24
2022-08-05T05:30:50.015Z,998.51
2022-08-05T05:31:23.005Z,998.51
2022-08-05T05:32:12.453Z,998.34
2022-08-05T05:32:35.225Z,998.51
2022-08-05T05:33:00.503Z,998.51
2022-08-05T05:33:31.118Z,998.51
2022-08-05T05:34:02.829Z,998.61
2022-08-05T05:34:34.143Z,998.61
2022-08-05T05:35:06.145Z,998.81
2022-08-05T05:35:37.953Z,998.92
2022-08-05T05:35:54.888Z,998.92
2022-08-05T05:36:28.770Z,998.92
2022-08-05T05:36:43.100Z,998.71
2022-08-05T05:37:15.593Z,998.71
2022-08-05T05:37:58.781Z,998.61
2022-08-05T05:38:22.521Z,998.61
2022-08-05T05:38:36.121Z,998.61
2022-08-05T05:39:10.798Z,998.61
2022-08-05T05:39:36.187Z,998.51
2022-08-05T05:39:56.082Z,998.51
2022-08-05T05:40:26.215Z,998.51
2022-08-05T05:40:48.019Z,998.44
2022-08-05T05:41:14.114Z,998.44
2022-08-05T05:41:40.802Z,998.51
2022-08-05T05:42:02.207Z,998.51
2022-08-05T05:42:34.094Z,998.51
2022-08-05T05:43:05.974Z,998.14
2022-08-05T05:43:56.550Z,998.34
2022-08-05T05:44:35.885Z,998.34
2022-08-05T05:44:44.399Z,998.34
2022-08-05T05:45:14.267Z,998.34
2022-08-05T05:45:35.238Z,998.14
2022-08-05T05:46:02.196Z,998.14
2022-08-05T05:46:34.065Z,998.14
2022-08-05T05:47:21.362Z,998.14
2022-08-05T05:48:05.722Z,998.44
2022-08-05T05:48:10.974Z,998.44
2022-08-05T05:48:37.140Z,998.51
2022-08-05T05:48:58.171Z,998.51
2022-08-05T05:49:29.998Z,998.51
2022-08-05T05:50:02.283Z,998.44
2022-08-05T05:50:34.893Z,998.44
2022-08-05T05:51:14.819Z,998.44
2022-08-05T05:51:50.038Z,998.24
2022-08-05T05:51:54.191Z,998.24
2022-08-05T05:52:32.789Z,998.24
2022-08-05T05:52:58.128Z,998.34
2022-08-05T05:53:30.036Z,998.34
2022-08-05T05:54:02.170Z,998.34
2022-08-05T05:54:49.674Z,998.34
2022-08-05T05:55:13.328Z,998.51
2022-08-05T05:55:51.980Z,998.51
2022-08-05T05:56:10.833Z,998.51
2022-08-05T05:56:35.394Z,998.34
2022-08-05T05:56:58.964Z,998.34
2022-08-05T05:57:43.042Z,998.34
2022-08-05T05:58:02.384Z,998.14
2022-08-05T05:58:34.143Z,998.14
2022-08-05T05:59:06.928Z,998.14
2022-08-05T05:59:40.129Z,998.03
2022-08-05T05:59:54.273Z,998.03
2022-08-05T06:00:31.701Z,998.03
2022-08-05T06:00:58.266Z,998.03
2022-08-05T06:01:37.847Z,998.03
2022-08-05T06:02:03.404Z,998.24
2022-08-05T06:02:37.778Z,998.24
2022-08-05T06:03:40.799Z,998.03
2022-08-05T06:04:11.964Z,998.03
2022-08-05T06:04:36.233Z,998.03
2022-08-05T06:05:00.066Z,998.03
2022-08-05T06:05:30.279Z,998.03
2022-08-05T06:06:02.599Z,997.93
2022-08-05T06:06:34.762Z,997.93
2022-08-05T06:07:07.317Z,998.14
2022-08-05T06:07:41.580Z,998.03
2022-08-05T06:07:57.799Z,998.03
2022-08-05T06:08:31.613Z,998.03
2022-08-05T06:08:43.657Z,998.03
2022-08-05T06:09:17.564Z,998.03
2022-08-05T06:09:36.479Z,998.03
2022-08-05T06:10:18.736Z,998.03
2022-08-05T06:10:52.901Z,997.93
2022-08-05T06:11:22.270Z,997.93
2022-08-05T06:11:40.109Z,998.03
2022-08-05T06:12:10.118Z,998.03
2022-08-05T06:12:36.322Z,997.73
2022-08-05T06:12:58.815Z,997.73
2022-08-05T06:13:30.165Z,997.73
2022-08-05T06:14:02.387Z,997.83
2022-08-05T06:14:34.785Z,997.83
2022-08-05T06:15:06.236Z,997.93
2022-08-05T06:16:29.028Z,997.93
2022-08-05T06:16:37.558Z,997.93
2022-08-05T06:16:58.425Z,997.93
2022-08-05T06:17:30.914Z,997.93
2022-08-05T06:18:02.985Z,997.83
2022-08-05T06:18:36.585Z,997.83
2022-08-05T06:19:07.074Z,997.93
2022-08-05T06:19:35.786Z,997.83
2022-08-05T06:19:56.588Z,997.83
2022-08-05T06:20:26.094Z,997.83
2022-08-05T06:20:43.522Z,998.03
2022-08-05T06:21:18.691Z,998.03
2022-08-05T06:21:35.857Z,997.83
2022-08-05T06:22:03.071Z,997.83
2022-08-05T06:22:34.985Z,997.83